sensor_id;sensor_type;location;lat;lon;timestamp;pressure;altitude;pressure_sealevel;temperature;humidity
79075;BME280;68476;42.710;23.388;2023-08-01T00:01:23;95252.75;;;18.24;69.96
79075;BME280;68476;42.710;23.388;2023-08-01T00:03:48;95241.47;;;18.21;69.95
79075;BME280;68476;42.710;23.388;2023-08-01T00:06:13;95242.31;;;18.16;70.07
79075;BME280;68476;42.710;23.388;2023-08-01T00:08:39;95253.91;;;18.13;69.73
79075;BME280;68476;42.710;23.388;2023-08-01T00:11:04;95254.81;;;18.03;69.85
79075;BME280;68476;42.710;23.388;2023-08-01T00:13:29;95253.88;;;17.63;71.31
79075;BME280;68476;42.710;23.388;2023-08-01T00:15:55;95265.25;;;17.30;72.78
79075;BME280;68476;42.710;23.388;2023-08-01T00:18:20;95259.81;;;16.73;74.46
79075;BME280;68476;42.710;23.388;2023-08-01T00:20:46;95254.84;;;16.49;75.32
79075;BME280;68476;42.710;23.388;2023-08-01T00:23:11;95255.13;;;16.38;76.49
79075;BME280;68476;42.710;23.388;2023-08-01T00:25:37;95252.13;;;16.34;77.09
79075;BME280;68476;42.710;23.388;2023-08-01T00:28:02;95256.53;;;16.45;76.93
79075;BME280;68476;42.710;23.388;2023-08-01T00:30:28;95254.28;;;16.37;76.78
79075;BME280;68476;42.710;23.388;2023-08-01T00:32:53;95257.53;;;15.98;77.53
79075;BME280;68476;42.710;23.388;2023-08-01T00:35:18;95258.63;;;16.02;77.41
79075;BME280;68476;42.710;23.388;2023-08-01T00:37:44;95257.06;;;16.32;77.38
79075;BME280;68476;42.710;23.388;2023-08-01T00:40:10;95262.25;;;16.33;77.75
79075;BME280;68476;42.710;23.388;2023-08-01T00:42:37;95265.56;;;16.36;78.08
79075;BME280;68476;42.710;23.388;2023-08-01T00:45:04;95263.38;;;16.43;78.11
79075;BME280;68476;42.710;23.388;2023-08-01T00:47:29;95257.31;;;16.41;78.02
79075;BME280;68476;42.710;23.388;2023-08-01T00:49:55;95262.81;;;16.41;78.30
79075;BME280;68476;42.710;23.388;2023-08-01T00:52:21;95255.94;;;16.48;77.79
79075;BME280;68476;42.710;23.388;2023-08-01T00:54:47;95252.66;;;16.62;77.12
79075;BME280;68476;42.710;23.388;2023-08-01T00:57:13;95250.72;;;16.57;76.85
79075;BME280;68476;42.710;23.388;2023-08-01T00:59:38;95246.34;;;16.61;76.44
79075;BME280;68476;42.710;23.388;2023-08-01T01:02:04;95242.22;;;16.64;76.57
79075;BME280;68476;42.710;23.388;2023-08-01T01:04:29;95246.28;;;16.20;78.13
79075;BME280;68476;42.710;23.388;2023-08-01T01:07:05;95243.25;;;16.01;79.74
79075;BME280;68476;42.710;23.388;2023-08-01T01:09:31;95243.00;;;16.23;78.55
79075;BME280;68476;42.710;23.388;2023-08-01T01:11:57;95239.72;;;16.31;78.27
79075;BME280;68476;42.710;23.388;2023-08-01T01:14:23;95242.19;;;16.48;77.17
79075;BME280;68476;42.710;23.388;2023-08-01T01:16:48;95237.81;;;16.58;77.02
79075;BME280;68476;42.710;23.388;2023-08-01T01:19:14;95233.94;;;16.64;76.36
79075;BME280;68476;42.710;23.388;2023-08-01T01:21:39;95220.50;;;16.62;76.79
79075;BME280;68476;42.710;23.388;2023-08-01T01:24:08;95221.84;;;16.55;76.92
79075;BME280;68476;42.710;23.388;2023-08-01T01:26:36;95228.44;;;16.17;78.26
79075;BME280;68476;42.710;23.388;2023-08-01T01:29:02;95224.22;;;15.79;80.19
79075;BME280;68476;42.710;23.388;2023-08-01T01:31:30;95223.94;;;15.80;80.22
79075;BME280;68476;42.710;23.388;2023-08-01T01:33:56;95227.31;;;15.98;79.64
79075;BME280;68476;42.710;23.388;2023-08-01T01:36:21;95224.53;;;15.88;79.94
79075;BME280;68476;42.710;23.388;2023-08-01T01:38:47;95232.44;;;15.84;80.51
79075;BME280;68476;42.710;23.388;2023-08-01T01:41:12;95229.47;;;15.91;79.97
79075;BME280;68476;42.710;23.388;2023-08-01T01:43:38;95225.59;;;15.81;80.18
79075;BME280;68476;42.710;23.388;2023-08-01T01:46:03;95213.22;;;15.79;80.64
79075;BME280;68476;42.710;23.388;2023-08-01T01:48:29;95222.31;;;15.90;80.03
79075;BME280;68476;42.710;23.388;2023-08-01T01:50:54;95222.66;;;16.04;79.04
79075;BME280;68476;42.710;23.388;2023-08-01T01:53:19;95229.50;;;16.11;78.98
79075;BME280;68476;42.710;23.388;2023-08-01T01:55:45;95230.09;;;16.18;78.47
79075;BME280;68476;42.710;23.388;2023-08-01T01:58:10;95241.09;;;16.18;78.15
79075;BME280;68476;42.710;23.388;2023-08-01T02:00:35;95240.25;;;16.18;78.48
79075;BME280;68476;42.710;23.388;2023-08-01T02:03:01;95237.78;;;16.16;78.93
79075;BME280;68476;42.710;23.388;2023-08-01T02:05:28;95230.06;;;16.03;78.89
79075;BME280;68476;42.710;23.388;2023-08-01T02:07:54;95225.06;;;15.84;79.50
79075;BME280;68476;42.710;23.388;2023-08-01T02:10:19;95230.25;;;15.81;79.64
79075;BME280;68476;42.710;23.388;2023-08-01T02:12:45;95231.13;;;15.92;79.25
79075;BME280;68476;42.710;23.388;2023-08-01T02:15:10;95227.28;;;15.93;79.61
79075;BME280;68476;42.710;23.388;2023-08-01T02:17:35;95228.03;;;15.83;80.01
79075;BME280;68476;42.710;23.388;2023-08-01T02:20:01;95232.72;;;15.82;79.93
79075;BME280;68476;42.710;23.388;2023-08-01T02:22:26;95232.97;;;15.76;79.88
79075;BME280;68476;42.710;23.388;2023-08-01T02:24:52;95231.88;;;15.82;79.17
79075;BME280;68476;42.710;23.388;2023-08-01T02:27:17;95228.84;;;15.78;79.85
79075;BME280;68476;42.710;23.388;2023-08-01T02:29:42;95224.47;;;15.72;80.52
79075;BME280;68476;42.710;23.388;2023-08-01T02:32:09;95225.56;;;15.76;80.06
79075;BME280;68476;42.710;23.388;2023-08-01T02:34:34;95226.94;;;15.74;80.24
79075;BME280;68476;42.710;23.388;2023-08-01T02:37:00;95225.84;;;15.69;80.33
79075;BME280;68476;42.710;23.388;2023-08-01T02:39:25;95228.28;;;15.66;80.13
79075;BME280;68476;42.710;23.388;2023-08-01T02:41:51;95228.28;;;15.61;80.82
79075;BME280;68476;42.710;23.388;2023-08-01T02:44:16;95224.94;;;15.53;81.11
79075;BME280;68476;42.710;23.388;2023-08-01T02:46:41;95235.38;;;15.51;81.42
79075;BME280;68476;42.710;23.388;2023-08-01T02:49:07;95233.69;;;15.45;81.09
79075;BME280;68476;42.710;23.388;2023-08-01T02:51:32;95241.19;;;15.07;82.80
79075;BME280;68476;42.710;23.388;2023-08-01T02:53:58;95236.16;;;14.56;84.57
79075;BME280;68476;42.710;23.388;2023-08-01T02:56:23;95240.75;;;14.45;84.79
79075;BME280;68476;42.710;23.388;2023-08-01T02:58:48;95237.88;;;14.62;85.05
79075;BME280;68476;42.710;23.388;2023-08-01T03:01:14;95235.56;;;14.81;84.13
79075;BME280;68476;42.710;23.388;2023-08-01T03:03:39;95231.75;;;14.87;83.26
79075;BME280;68476;42.710;23.388;2023-08-01T03:06:05;95239.75;;;14.94;83.10
79075;BME280;68476;42.710;23.388;2023-08-01T03:08:30;95232.66;;;14.98;82.83
79075;BME280;68476;42.710;23.388;2023-08-01T03:10:56;95247.47;;;14.97;83.05
79075;BME280;68476;42.710;23.388;2023-08-01T03:13:22;95234.81;;;14.96;82.50
79075;BME280;68476;42.710;23.388;2023-08-01T03:15:47;95243.34;;;15.00;82.12
79075;BME280;68476;42.710;23.388;2023-08-01T03:18:13;95236.72;;;14.95;83.18
79075;BME280;68476;42.710;23.388;2023-08-01T03:20:38;95247.28;;;14.71;83.17
79075;BME280;68476;42.710;23.388;2023-08-01T03:23:04;95244.88;;;14.47;83.07
79075;BME280;68476;42.710;23.388;2023-08-01T03:25:29;95243.16;;;14.69;83.54
79075;BME280;68476;42.710;23.388;2023-08-01T03:27:56;95240.94;;;14.71;83.48
79075;BME280;68476;42.710;23.388;2023-08-01T03:30:22;95248.66;;;14.74;83.29
79075;BME280;68476;42.710;23.388;2023-08-01T03:32:47;95247.63;;;14.80;83.68
79075;BME280;68476;42.710;23.388;2023-08-01T03:35:13;95250.03;;;14.76;83.49
79075;BME280;68476;42.710;23.388;2023-08-01T03:37:41;95251.75;;;14.83;82.92
79075;BME280;68476;42.710;23.388;2023-08-01T03:40:07;95250.88;;;14.77;82.98
79075;BME280;68476;42.710;23.388;2023-08-01T03:42:36;95262.06;;;14.70;83.56
79075;BME280;68476;42.710;23.388;2023-08-01T03:45:01;95252.75;;;14.71;83.62
79075;BME280;68476;42.710;23.388;2023-08-01T03:47:27;95253.91;;;14.81;83.76
79075;BME280;68476;42.710;23.388;2023-08-01T03:49:52;95254.78;;;14.86;83.77
79075;BME280;68476;42.710;23.388;2023-08-01T03:52:17;95257.25;;;14.88;82.82
79075;BME280;68476;42.710;23.388;2023-08-01T03:54:43;95255.56;;;14.82;83.88
79075;BME280;68476;42.710;23.388;2023-08-01T03:57:08;95259.19;;;14.87;83.36
79075;BME280;68476;42.710;23.388;2023-08-01T03:59:33;95255.69;;;14.97;83.38
79075;BME280;68476;42.710;23.388;2023-08-01T04:01:59;95260.78;;;15.21;81.78
79075;BME280;68476;42.710;23.388;2023-08-01T04:04:24;95254.53;;;15.36;81.19
79075;BME280;68476;42.710;23.388;2023-08-01T04:06:50;95250.75;;;15.52;80.20
79075;BME280;68476;42.710;23.388;2023-08-01T04:09:15;95256.69;;;15.29;80.68
79075;BME280;68476;42.710;23.388;2023-08-01T04:11:40;95267.84;;;14.74;83.61
79075;BME280;68476;42.710;23.388;2023-08-01T04:14:06;95261.63;;;14.51;84.51
79075;BME280;68476;42.710;23.388;2023-08-01T04:16:31;95256.50;;;14.65;83.23
79075;BME280;68476;42.710;23.388;2023-08-01T04:18:56;95269.66;;;14.95;82.87
79075;BME280;68476;42.710;23.388;2023-08-01T04:21:22;95268.44;;;15.24;81.03
79075;BME280;68476;42.710;23.388;2023-08-01T04:23:47;95273.97;;;15.29;81.21
79075;BME280;68476;42.710;23.388;2023-08-01T04:26:13;95272.66;;;15.37;80.82
79075;BME280;68476;42.710;23.388;2023-08-01T04:28:38;95272.66;;;15.42;80.67
79075;BME280;68476;42.710;23.388;2023-08-01T04:31:03;95267.78;;;15.49;80.34
79075;BME280;68476;42.710;23.388;2023-08-01T04:33:29;95267.44;;;15.40;79.76
79075;BME280;68476;42.710;23.388;2023-08-01T04:35:54;95269.38;;;15.40;80.28
79075;BME280;68476;42.710;23.388;2023-08-01T04:38:20;95271.31;;;15.45;80.47
79075;BME280;68476;42.710;23.388;2023-08-01T04:40:45;95273.00;;;15.51;79.55
79075;BME280;68476;42.710;23.388;2023-08-01T04:43:11;95275.50;;;15.57;79.92
79075;BME280;68476;42.710;23.388;2023-08-01T04:45:37;95273.91;;;15.72;78.44
79075;BME280;68476;42.710;23.388;2023-08-01T04:48:03;95267.28;;;15.68;78.88
79075;BME280;68476;42.710;23.388;2023-08-01T04:50:28;95262.44;;;15.91;77.25
79075;BME280;68476;42.710;23.388;2023-08-01T04:52:54;95261.13;;;16.19;76.49
79075;BME280;68476;42.710;23.388;2023-08-01T04:55:19;95260.31;;;16.24;76.35
79075;BME280;68476;42.710;23.388;2023-08-01T04:57:45;95261.47;;;16.33;76.10
79075;BME280;68476;42.710;23.388;2023-08-01T05:00:11;95260.34;;;16.34;76.17
79075;BME280;68476;42.710;23.388;2023-08-01T05:02:37;95261.47;;;16.74;74.89
79075;BME280;68476;42.710;23.388;2023-08-01T05:05:02;95255.66;;;16.76;74.50
79075;BME280;68476;42.710;23.388;2023-08-01T05:07:29;95254.84;;;16.91;74.38
79075;BME280;68476;42.710;23.388;2023-08-01T05:09:54;95254.81;;;17.27;72.89
79075;BME280;68476;42.710;23.388;2023-08-01T05:12:20;95257.56;;;17.27;72.13
79075;BME280;68476;42.710;23.388;2023-08-01T05:14:45;95255.84;;;17.52;71.58
79075;BME280;68476;42.710;23.388;2023-08-01T05:17:10;95257.16;;;17.65;71.73
79075;BME280;68476;42.710;23.388;2023-08-01T05:19:36;95258.56;;;17.57;72.28
79075;BME280;68476;42.710;23.388;2023-08-01T05:22:01;95265.31;;;17.91;70.86
79075;BME280;68476;42.710;23.388;2023-08-01T05:24:27;95266.38;;;18.05;69.23
79075;BME280;68476;42.710;23.388;2023-08-01T05:26:52;95261.56;;;18.26;69.31
79075;BME280;68476;42.710;23.388;2023-08-01T05:29:18;95258.81;;;18.26;68.75
79075;BME280;68476;42.710;23.388;2023-08-01T05:31:43;95255.56;;;18.59;67.82
79075;BME280;68476;42.710;23.388;2023-08-01T05:34:08;95258.00;;;18.60;67.62
79075;BME280;68476;42.710;23.388;2023-08-01T05:36:34;95268.25;;;18.55;67.98
79075;BME280;68476;42.710;23.388;2023-08-01T05:38:59;95263.50;;;18.66;66.88
79075;BME280;68476;42.710;23.388;2023-08-01T05:41:24;95260.38;;;18.38;67.90
79075;BME280;68476;42.710;23.388;2023-08-01T05:43:50;95256.75;;;18.42;67.64
79075;BME280;68476;42.710;23.388;2023-08-01T05:46:16;95262.94;;;18.69;66.35
79075;BME280;68476;42.710;23.388;2023-08-01T05:48:41;95265.59;;;18.44;66.00
79075;BME280;68476;42.710;23.388;2023-08-01T05:51:07;95255.72;;;18.73;65.66
79075;BME280;68476;42.710;23.388;2023-08-01T05:53:32;95252.09;;;19.12;65.21
79075;BME280;68476;42.710;23.388;2023-08-01T05:55:58;95254.88;;;19.07;64.69
79075;BME280;68476;42.710;23.388;2023-08-01T05:58:23;95248.72;;;19.45;64.02
79075;BME280;68476;42.710;23.388;2023-08-01T06:00:48;95258.94;;;19.44;63.19
79075;BME280;68476;42.710;23.388;2023-08-01T06:03:14;95252.16;;;19.55;63.27
79075;BME280;68476;42.710;23.388;2023-08-01T06:05:39;95249.22;;;19.71;62.30
79075;BME280;68476;42.710;23.388;2023-08-01T06:08:08;95250.28;;;19.75;61.98
79075;BME280;68476;42.710;23.388;2023-08-01T06:10:36;95249.31;;;19.85;61.21
79075;BME280;68476;42.710;23.388;2023-08-01T06:13:02;95248.56;;;19.79;61.12
79075;BME280;68476;42.710;23.388;2023-08-01T06:15:27;95249.38;;;20.04;60.45
79075;BME280;68476;42.710;23.388;2023-08-01T06:17:53;95254.00;;;19.90;60.13
79075;BME280;68476;42.710;23.388;2023-08-01T06:20:18;95249.22;;;19.71;60.97
79075;BME280;68476;42.710;23.388;2023-08-01T06:22:44;95252.06;;;19.90;60.44
79075;BME280;68476;42.710;23.388;2023-08-01T06:25:09;95246.47;;;19.71;61.17
79075;BME280;68476;42.710;23.388;2023-08-01T06:27:35;95239.63;;;19.88;60.78
79075;BME280;68476;42.710;23.388;2023-08-01T06:30:01;95242.59;;;20.15;59.75
79075;BME280;68476;42.710;23.388;2023-08-01T06:32:26;95237.22;;;20.43;59.19
79075;BME280;68476;42.710;23.388;2023-08-01T06:34:51;95238.19;;;20.53;58.95
79075;BME280;68476;42.710;23.388;2023-08-01T06:37:17;95240.19;;;20.47;58.54
79075;BME280;68476;42.710;23.388;2023-08-01T06:39:43;95228.66;;;20.59;57.74
79075;BME280;68476;42.710;23.388;2023-08-01T06:42:09;95235.16;;;19.92;58.80
79075;BME280;68476;42.710;23.388;2023-08-01T06:44:35;95225.94;;;20.21;58.69
79075;BME280;68476;42.710;23.388;2023-08-01T06:47:00;95238.19;;;20.53;57.52
79075;BME280;68476;42.710;23.388;2023-08-01T06:49:25;95226.84;;;20.87;56.61
79075;BME280;68476;42.710;23.388;2023-08-01T06:51:51;95231.13;;;21.27;55.67
79075;BME280;68476;42.710;23.388;2023-08-01T06:54:16;95228.22;;;20.32;57.54
79075;BME280;68476;42.710;23.388;2023-08-01T06:56:42;95219.78;;;20.95;56.42
79075;BME280;68476;42.710;23.388;2023-08-01T06:59:13;95223.47;;;21.37;54.84
79075;BME280;68476;42.710;23.388;2023-08-01T07:01:39;95225.41;;;21.51;54.38
79075;BME280;68476;42.710;23.388;2023-08-01T07:04:06;95231.28;;;21.77;53.37
79075;BME280;68476;42.710;23.388;2023-08-01T07:06:33;95222.81;;;21.40;54.53
79075;BME280;68476;42.710;23.388;2023-08-01T07:08:59;95228.72;;;21.81;53.40
79075;BME280;68476;42.710;23.388;2023-08-01T07:11:24;95221.66;;;21.75;51.85
79075;BME280;68476;42.710;23.388;2023-08-01T07:13:50;95213.84;;;22.27;51.35
79075;BME280;68476;42.710;23.388;2023-08-01T07:16:15;95214.88;;;22.31;50.60
79075;BME280;68476;42.710;23.388;2023-08-01T07:18:40;95214.81;;;22.09;51.27
79075;BME280;68476;42.710;23.388;2023-08-01T07:21:06;95216.03;;;22.16;51.37
79075;BME280;68476;42.710;23.388;2023-08-01T07:23:33;95215.09;;;22.21;51.30
79075;BME280;68476;42.710;23.388;2023-08-01T07:25:59;95210.97;;;22.32;50.21
79075;BME280;68476;42.710;23.388;2023-08-01T07:28:25;95216.47;;;22.10;50.25
79075;BME280;68476;42.710;23.388;2023-08-01T07:31:04;95199.91;;;22.55;49.20
79075;BME280;68476;42.710;23.388;2023-08-01T07:33:30;95186.78;;;22.33;49.58
79075;BME280;68476;42.710;23.388;2023-08-01T07:35:56;95200.09;;;22.22;49.79
79075;BME280;68476;42.710;23.388;2023-08-01T07:38:21;95204.63;;;22.55;49.24
79075;BME280;68476;42.710;23.388;2023-08-01T07:40:47;95195.66;;;22.81;48.62
79075;BME280;68476;42.710;23.388;2023-08-01T07:43:12;95198.78;;;22.88;47.90
79075;BME280;68476;42.710;23.388;2023-08-01T07:45:38;95189.47;;;23.47;46.77
79075;BME280;68476;42.710;23.388;2023-08-01T07:48:04;95193.50;;;23.32;47.31
79075;BME280;68476;42.710;23.388;2023-08-01T07:50:30;95201.03;;;22.54;49.59
79075;BME280;68476;42.710;23.388;2023-08-01T07:52:55;95196.06;;;22.28;49.71
79075;BME280;68476;42.710;23.388;2023-08-01T07:55:20;95198.69;;;22.47;50.17
79075;BME280;68476;42.710;23.388;2023-08-01T07:57:47;95195.66;;;22.81;48.94
79075;BME280;68476;42.710;23.388;2023-08-01T08:00:12;95184.59;;;23.44;47.56
79075;BME280;68476;42.710;23.388;2023-08-01T08:02:38;95186.78;;;23.64;47.22
79075;BME280;68476;42.710;23.388;2023-08-01T08:05:04;95187.19;;;23.49;47.76
79075;BME280;68476;42.710;23.388;2023-08-01T08:07:30;95186.44;;;23.66;46.83
79075;BME280;68476;42.710;23.388;2023-08-01T08:09:55;95174.72;;;23.37;48.03
79075;BME280;68476;42.710;23.388;2023-08-01T08:12:22;95183.03;;;23.29;48.31
79075;BME280;68476;42.710;23.388;2023-08-01T08:14:48;95183.19;;;23.23;47.85
79075;BME280;68476;42.710;23.388;2023-08-01T08:17:13;95173.63;;;23.47;47.48
79075;BME280;68476;42.710;23.388;2023-08-01T08:19:38;95162.44;;;23.79;46.88
79075;BME280;68476;42.710;23.388;2023-08-01T08:22:04;95168.75;;;24.46;45.74
79075;BME280;68476;42.710;23.388;2023-08-01T08:24:30;95166.22;;;23.92;45.93
79075;BME280;68476;42.710;23.388;2023-08-01T08:26:55;95170.53;;;24.07;45.64
79075;BME280;68476;42.710;23.388;2023-08-01T08:29:21;95156.47;;;24.38;45.32
79075;BME280;68476;42.710;23.388;2023-08-01T08:31:47;95158.75;;;24.80;44.36
79075;BME280;68476;42.710;23.388;2023-08-01T08:34:12;95160.06;;;24.47;44.08
79075;BME280;68476;42.710;23.388;2023-08-01T08:36:38;95150.38;;;24.98;43.63
79075;BME280;68476;42.710;23.388;2023-08-01T08:39:03;95145.13;;;24.87;43.74
79075;BME280;68476;42.710;23.388;2023-08-01T08:41:32;95138.09;;;25.29;43.33
79075;BME280;68476;42.710;23.388;2023-08-01T08:44:01;95144.28;;;25.04;43.67
79075;BME280;68476;42.710;23.388;2023-08-01T08:46:28;95133.50;;;24.85;43.69
79075;BME280;68476;42.710;23.388;2023-08-01T08:48:56;95137.78;;;24.65;43.43
79075;BME280;68476;42.710;23.388;2023-08-01T08:51:23;95139.03;;;24.94;42.56
79075;BME280;68476;42.710;23.388;2023-08-01T08:53:50;95139.03;;;25.50;41.60
79075;BME280;68476;42.710;23.388;2023-08-01T08:56:18;95134.06;;;25.08;42.48
79075;BME280;68476;42.710;23.388;2023-08-01T08:58:45;95132.88;;;24.44;43.78
79075;BME280;68476;42.710;23.388;2023-08-01T09:01:12;95121.78;;;25.10;41.96
79075;BME280;68476;42.710;23.388;2023-08-01T09:03:38;95125.22;;;25.84;40.90
79075;BME280;68476;42.710;23.388;2023-08-01T09:06:14;95126.16;;;25.88;40.35
79075;BME280;68476;42.710;23.388;2023-08-01T09:08:40;95111.97;;;26.02;40.21
79075;BME280;68476;42.710;23.388;2023-08-01T09:11:08;95111.72;;;26.71;38.68
79075;BME280;68476;42.710;23.388;2023-08-01T09:13:34;95107.34;;;26.27;39.55
79075;BME280;68476;42.710;23.388;2023-08-01T09:16:01;95101.81;;;26.40;39.29
79075;BME280;68476;42.710;23.388;2023-08-01T09:18:27;95103.88;;;26.30;38.63
79075;BME280;68476;42.710;23.388;2023-08-01T09:20:53;95101.41;;;26.50;38.19
79075;BME280;68476;42.710;23.388;2023-08-01T09:23:18;95104.25;;;26.63;37.83
79075;BME280;68476;42.710;23.388;2023-08-01T09:25:44;95101.06;;;26.52;37.44
79075;BME280;68476;42.710;23.388;2023-08-01T09:28:23;95095.09;;;27.33;36.04
79075;BME280;68476;42.710;23.388;2023-08-01T09:30:54;95104.47;;;27.62;35.15
79075;BME280;68476;42.710;23.388;2023-08-01T09:33:21;95097.84;;;27.08;35.93
79075;BME280;68476;42.710;23.388;2023-08-01T09:35:48;95097.19;;;27.36;35.84
79075;BME280;68476;42.710;23.388;2023-08-01T09:38:15;95090.53;;;27.90;34.79
79075;BME280;68476;42.710;23.388;2023-08-01T09:40:41;95092.09;;;27.63;35.65
79075;BME280;68476;42.710;23.388;2023-08-01T09:43:07;95083.88;;;27.20;36.33
79075;BME280;68476;42.710;23.388;2023-08-01T09:45:33;95077.94;;;27.84;35.23
79075;BME280;68476;42.710;23.388;2023-08-01T09:48:00;95087.22;;;28.54;34.73
79075;BME280;68476;42.710;23.388;2023-08-01T09:50:25;95078.94;;;28.17;35.01
79075;BME280;68476;42.710;23.388;2023-08-01T09:52:51;95078.44;;;27.49;36.35
79075;BME280;68476;42.710;23.388;2023-08-01T09:55:31;95073.69;;;27.62;35.94
79075;BME280;68476;42.710;23.388;2023-08-01T09:57:58;95062.44;;;27.00;37.05
79075;BME280;68476;42.710;23.388;2023-08-01T10:00:28;95065.00;;;27.30;36.55
79075;BME280;68476;42.710;23.388;2023-08-01T10:02:58;95043.78;;;27.41;36.30
79075;BME280;68476;42.710;23.388;2023-08-01T10:05:31;95048.94;;;28.17;35.24
79075;BME280;68476;42.710;23.388;2023-08-01T10:08:00;95046.34;;;28.53;34.47
79075;BME280;68476;42.710;23.388;2023-08-01T10:10:27;95041.41;;;27.93;35.17
79075;BME280;68476;42.710;23.388;2023-08-01T10:12:54;95042.50;;;28.29;34.88
79075;BME280;68476;42.710;23.388;2023-08-01T10:15:21;95047.44;;;28.20;34.62
79075;BME280;68476;42.710;23.388;2023-08-01T10:17:46;95043.69;;;27.37;36.29
79075;BME280;68476;42.710;23.388;2023-08-01T10:20:12;95041.94;;;27.33;36.56
79075;BME280;68476;42.710;23.388;2023-08-01T10:22:39;95043.47;;;27.30;36.30
79075;BME280;68476;42.710;23.388;2023-08-01T10:25:07;95033.03;;;27.93;35.30
79075;BME280;68476;42.710;23.388;2023-08-01T10:27:33;95025.63;;;29.18;33.89
79075;BME280;68476;42.710;23.388;2023-08-01T10:30:02;95025.31;;;29.35;33.14
79075;BME280;68476;42.710;23.388;2023-08-01T10:32:35;95021.50;;;29.79;32.26
79075;BME280;68476;42.710;23.388;2023-08-01T10:35:02;95020.13;;;30.48;31.09
79075;BME280;68476;42.710;23.388;2023-08-01T10:37:39;95020.19;;;32.90;27.21
79075;BME280;68476;42.710;23.388;2023-08-01T10:40:07;95021.38;;;34.60;24.93
79075;BME280;68476;42.710;23.388;2023-08-01T10:42:40;95006.19;;;35.52;23.82
79075;BME280;68476;42.710;23.388;2023-08-01T10:45:06;95013.75;;;34.82;24.39
79075;BME280;68476;42.710;23.388;2023-08-01T10:47:35;95006.28;;;36.66;22.28
79075;BME280;68476;42.710;23.388;2023-08-01T10:50:00;94999.88;;;36.54;22.27
79075;BME280;68476;42.710;23.388;2023-08-01T10:52:26;94990.34;;;36.97;21.08
79075;BME280;68476;42.710;23.388;2023-08-01T10:55:00;94984.91;;;36.50;22.34
79075;BME280;68476;42.710;23.388;2023-08-01T10:57:27;94986.09;;;37.20;21.01
79075;BME280;68476;42.710;23.388;2023-08-01T10:59:55;94978.91;;;37.08;21.60
79075;BME280;68476;42.710;23.388;2023-08-01T11:02:22;94953.25;;;32.87;25.48
79075;BME280;68476;42.710;23.388;2023-08-01T11:04:55;94962.50;;;32.87;27.19
79075;BME280;68476;42.710;23.388;2023-08-01T11:07:23;94978.25;;;35.17;23.54
79075;BME280;68476;42.710;23.388;2023-08-01T11:09:49;94959.22;;;38.19;20.16
79075;BME280;68476;42.710;23.388;2023-08-01T11:12:14;94958.03;;;36.69;21.28
79075;BME280;68476;42.710;23.388;2023-08-01T11:14:40;94965.41;;;37.69;20.51
79075;BME280;68476;42.710;23.388;2023-08-01T11:17:05;94963.16;;;36.96;21.69
79075;BME280;68476;42.710;23.388;2023-08-01T11:19:30;94953.06;;;37.83;20.28
79075;BME280;68476;42.710;23.388;2023-08-01T11:21:57;94948.28;;;37.76;20.09
79075;BME280;68476;42.710;23.388;2023-08-01T11:24:24;94940.88;;;36.88;21.32
79075;BME280;68476;42.710;23.388;2023-08-01T11:26:51;94945.22;;;37.59;20.13
79075;BME280;68476;42.710;23.388;2023-08-01T11:29:18;94951.28;;;36.42;21.59
79075;BME280;68476;42.710;23.388;2023-08-01T11:31:55;94952.16;;;37.97;19.89
79075;BME280;68476;42.710;23.388;2023-08-01T11:34:21;94942.31;;;38.05;19.22
79075;BME280;68476;42.710;23.388;2023-08-01T11:36:47;94936.72;;;37.98;19.72
79075;BME280;68476;42.710;23.388;2023-08-01T11:39:14;94937.09;;;38.34;19.38
79075;BME280;68476;42.710;23.388;2023-08-01T11:41:41;94929.53;;;39.10;18.67
79075;BME280;68476;42.710;23.388;2023-08-01T11:44:07;94942.53;;;36.85;21.00
79075;BME280;68476;42.710;23.388;2023-08-01T11:46:34;94930.75;;;39.09;18.30
79075;BME280;68476;42.710;23.388;2023-08-01T11:49:01;94931.94;;;38.57;18.57
79075;BME280;68476;42.710;23.388;2023-08-01T11:51:28;94921.94;;;39.74;17.34
79075;BME280;68476;42.710;23.388;2023-08-01T11:54:01;94917.81;;;38.15;18.78
79075;BME280;68476;42.710;23.388;2023-08-01T11:56:26;94911.31;;;38.76;18.39
79075;BME280;68476;42.710;23.388;2023-08-01T11:58:52;94911.16;;;37.52;19.60
79075;BME280;68476;42.710;23.388;2023-08-01T12:01:18;94908.03;;;37.81;19.25
79075;BME280;68476;42.710;23.388;2023-08-01T12:03:52;94895.75;;;38.84;18.44
79075;BME280;68476;42.710;23.388;2023-08-01T12:06:19;94886.06;;;36.34;20.62
79075;BME280;68476;42.710;23.388;2023-08-01T12:08:46;94888.66;;;38.07;19.12
79075;BME280;68476;42.710;23.388;2023-08-01T12:11:25;94886.13;;;39.50;17.70
79075;BME280;68476;42.710;23.388;2023-08-01T12:14:07;94882.41;;;37.85;19.36
79075;BME280;68476;42.710;23.388;2023-08-01T12:16:35;94883.97;;;38.82;18.38
79075;BME280;68476;42.710;23.388;2023-08-01T12:19:01;94875.25;;;40.98;15.76
79075;BME280;68476;42.710;23.388;2023-08-01T12:21:30;94872.34;;;41.19;15.84
79075;BME280;68476;42.710;23.388;2023-08-01T12:23:56;94868.13;;;40.90;16.00
79075;BME280;68476;42.710;23.388;2023-08-01T12:26:22;94864.88;;;39.54;17.29
79075;BME280;68476;42.710;23.388;2023-08-01T12:28:47;94869.72;;;39.98;16.59
79075;BME280;68476;42.710;23.388;2023-08-01T12:31:16;94865.91;;;42.62;14.50
79075;BME280;68476;42.710;23.388;2023-08-01T12:33:42;94860.06;;;40.32;16.51
79075;BME280;68476;42.710;23.388;2023-08-01T12:36:07;94860.63;;;41.29;15.37
79075;BME280;68476;42.710;23.388;2023-08-01T12:38:33;94858.88;;;40.49;16.30
79075;BME280;68476;42.710;23.388;2023-08-01T12:40:58;94862.88;;;40.52;15.54
79075;BME280;68476;42.710;23.388;2023-08-01T12:43:24;94850.88;;;39.84;16.75
79075;BME280;68476;42.710;23.388;2023-08-01T12:45:49;94842.38;;;40.00;16.62